Terminal Aerodrome Forecast
Issued by NWS Central Illinois

Home | Current Version | Previous Version | Text Only | Print | Product List | Glossary On
Versions: 1 2 3 4 5 6 7 8 9 10 11 12 13 14 15 16 17 18 19 20 21
000
FTUS43 KILX 041558 AAA
TAFSPI
TAF AMD
KSPI 041558Z 0416/0512 22010KT P6SM SCT050 BKN120
     FM042000 22010KT P6SM VCTS SCT050CB
     FM050200 18007KT P6SM VCTS BKN050CB=

USA.gov is the U.S. government's official web portal to all federal, state and local government web resources and services.